sensor_id;sensor_type;location;lat;lon;timestamp;pressure;altitude;pressure_sealevel;temperature;humidity
64602;BME280;68371;42.630;23.192;2023-04-09T00:00:10;92476.81;;;5.81;93.27
64602;BME280;68371;42.630;23.192;2023-04-09T00:02:37;92471.63;;;5.81;93.30
64602;BME280;68371;42.630;23.192;2023-04-09T00:05:04;92468.88;;;5.78;92.76
64602;BME280;68371;42.630;23.192;2023-04-09T00:07:31;92469.16;;;5.76;93.53
64602;BME280;68371;42.630;23.192;2023-04-09T00:09:58;92478.38;;;5.82;93.24
64602;BME280;68371;42.630;23.192;2023-04-09T00:12:26;92479.25;;;5.69;92.57
64602;BME280;68371;42.630;23.192;2023-04-09T00:14:54;92480.41;;;5.46;93.81
64602;BME280;68371;42.630;23.192;2023-04-09T00:17:21;92487.16;;;5.55;94.16
64602;BME280;68371;42.630;23.192;2023-04-09T00:19:48;92488.44;;;5.67;94.42
64602;BME280;68371;42.630;23.192;2023-04-09T00:22:14;92488.00;;;5.73;94.63
64602;BME280;68371;42.630;23.192;2023-04-09T00:24:41;92486.78;;;5.79;94.94
64602;BME280;68371;42.630;23.192;2023-04-09T00:27:09;92486.50;;;5.81;94.51
64602;BME280;68371;42.630;23.192;2023-04-09T00:29:37;92488.63;;;5.79;93.76
64602;BME280;68371;42.630;23.192;2023-04-09T00:32:04;92500.41;;;5.68;92.74
64602;BME280;68371;42.630;23.192;2023-04-09T00:34:30;92492.38;;;5.55;93.36
64602;BME280;68371;42.630;23.192;2023-04-09T00:36:58;92496.97;;;5.50;94.00
64602;BME280;68371;42.630;23.192;2023-04-09T00:39:25;92493.03;;;5.61;94.32
64602;BME280;68371;42.630;23.192;2023-04-09T00:41:55;92491.81;;;5.67;94.19
64602;BME280;68371;42.630;23.192;2023-04-09T00:44:22;92489.38;;;5.71;94.78
64602;BME280;68371;42.630;23.192;2023-04-09T00:46:51;92484.03;;;5.76;94.35
64602;BME280;68371;42.630;23.192;2023-04-09T00:49:18;92484.66;;;5.81;93.94
64602;BME280;68371;42.630;23.192;2023-04-09T00:51:45;92482.03;;;5.73;93.22
64602;BME280;68371;42.630;23.192;2023-04-09T00:54:14;92481.09;;;5.69;93.44
64602;BME280;68371;42.630;23.192;2023-04-09T00:56:41;92485.84;;;5.67;94.06
64602;BME280;68371;42.630;23.192;2023-04-09T00:59:09;92497.03;;;5.67;93.86
64602;BME280;68371;42.630;23.192;2023-04-09T01:01:36;92492.75;;;5.71;93.52
64602;BME280;68371;42.630;23.192;2023-04-09T01:04:04;92497.38;;;5.83;92.96
64602;BME280;68371;42.630;23.192;2023-04-09T01:06:36;92494.94;;;5.87;93.50
64602;BME280;68371;42.630;23.192;2023-04-09T01:09:06;92496.78;;;5.86;93.94
64602;BME280;68371;42.630;23.192;2023-04-09T01:11:37;92495.53;;;5.83;94.74
64602;BME280;68371;42.630;23.192;2023-04-09T01:14:13;92497.84;;;5.85;95.02
64602;BME280;68371;42.630;23.192;2023-04-09T01:16:51;92496.19;;;5.89;95.23
64602;BME280;68371;42.630;23.192;2023-04-09T01:19:40;92495.06;;;5.73;95.63
64602;BME280;68371;42.630;23.192;2023-04-09T01:22:17;92497.22;;;5.79;94.86
64602;BME280;68371;42.630;23.192;2023-04-09T01:24:59;92497.84;;;5.85;94.81
64602;BME280;68371;42.630;23.192;2023-04-09T01:27:36;92492.19;;;5.92;94.68
64602;BME280;68371;42.630;23.192;2023-04-09T01:30:07;92491.13;;;5.93;94.98
64602;BME280;68371;42.630;23.192;2023-04-09T01:32:36;92494.41;;;5.98;94.32
64602;BME280;68371;42.630;23.192;2023-04-09T01:35:05;92497.63;;;6.04;94.63
64602;BME280;68371;42.630;23.192;2023-04-09T01:37:33;92495.16;;;6.08;94.41
64602;BME280;68371;42.630;23.192;2023-04-09T01:40:01;92495.63;;;6.10;94.61
64602;BME280;68371;42.630;23.192;2023-04-09T01:42:29;92490.13;;;6.11;94.28
64602;BME280;68371;42.630;23.192;2023-04-09T01:44:57;92496.56;;;6.14;93.70
64602;BME280;68371;42.630;23.192;2023-04-09T01:47:26;92491.97;;;6.19;93.60
64602;BME280;68371;42.630;23.192;2023-04-09T01:49:53;92490.25;;;6.06;94.00
64602;BME280;68371;42.630;23.192;2023-04-09T01:52:20;92489.19;;;6.07;94.09
64602;BME280;68371;42.630;23.192;2023-04-09T01:54:47;92495.34;;;6.11;94.45
64602;BME280;68371;42.630;23.192;2023-04-09T01:57:13;92491.66;;;6.12;94.69
64602;BME280;68371;42.630;23.192;2023-04-09T01:59:40;92494.88;;;6.09;95.10
64602;BME280;68371;42.630;23.192;2023-04-09T02:02:09;92482.75;;;6.13;94.75
64602;BME280;68371;42.630;23.192;2023-04-09T02:04:40;92484.16;;;6.19;94.84
64602;BME280;68371;42.630;23.192;2023-04-09T02:07:14;92484.75;;;6.08;94.00
64602;BME280;68371;42.630;23.192;2023-04-09T02:09:45;92487.88;;;5.87;93.98
64602;BME280;68371;42.630;23.192;2023-04-09T02:12:17;92488.41;;;5.98;92.39
64602;BME280;68371;42.630;23.192;2023-04-09T02:14:45;92489.78;;;6.04;91.58
64602;BME280;68371;42.630;23.192;2023-04-09T02:17:12;92484.25;;;5.97;91.85
64602;BME280;68371;42.630;23.192;2023-04-09T02:19:41;92483.19;;;5.98;92.90
64602;BME280;68371;42.630;23.192;2023-04-09T02:22:09;92487.94;;;5.96;92.34
64602;BME280;68371;42.630;23.192;2023-04-09T02:24:36;92478.13;;;6.01;91.63
64602;BME280;68371;42.630;23.192;2023-04-09T02:27:04;92483.34;;;6.01;90.50
64602;BME280;68371;42.630;23.192;2023-04-09T02:29:31;92484.56;;;5.95;90.71
64602;BME280;68371;42.630;23.192;2023-04-09T02:31:58;92492.19;;;5.92;90.40
64602;BME280;68371;42.630;23.192;2023-04-09T02:34:25;92486.22;;;5.91;90.03
64602;BME280;68371;42.630;23.192;2023-04-09T02:36:53;92485.63;;;5.94;90.26
64602;BME280;68371;42.630;23.192;2023-04-09T02:39:20;92483.91;;;5.90;89.94
64602;BME280;68371;42.630;23.192;2023-04-09T02:41:46;92478.09;;;5.84;90.47
64602;BME280;68371;42.630;23.192;2023-04-09T02:44:13;92480.97;;;5.82;89.57
64602;BME280;68371;42.630;23.192;2023-04-09T02:46:41;92478.66;;;5.81;89.92
64602;BME280;68371;42.630;23.192;2023-04-09T02:49:07;92482.19;;;5.76;90.00
64602;BME280;68371;42.630;23.192;2023-04-09T02:51:34;92474.38;;;5.76;90.16
64602;BME280;68371;42.630;23.192;2023-04-09T02:54:03;92476.22;;;5.76;90.15
64602;BME280;68371;42.630;23.192;2023-04-09T02:56:29;92475.75;;;5.74;89.20
64602;BME280;68371;42.630;23.192;2023-04-09T02:58:56;92485.66;;;5.63;88.79
64602;BME280;68371;42.630;23.192;2023-04-09T03:01:23;92478.31;;;5.25;89.34
64602;BME280;68371;42.630;23.192;2023-04-09T03:03:49;92479.75;;;5.09;89.58
64602;BME280;68371;42.630;23.192;2023-04-09T03:06:16;92472.88;;;5.13;90.25
64602;BME280;68371;42.630;23.192;2023-04-09T03:08:43;92476.41;;;5.17;89.99
64602;BME280;68371;42.630;23.192;2023-04-09T03:11:11;92467.56;;;5.18;89.38
64602;BME280;68371;42.630;23.192;2023-04-09T03:13:37;92468.03;;;5.20;89.40
64602;BME280;68371;42.630;23.192;2023-04-09T03:16:05;92469.25;;;5.22;89.41
64602;BME280;68371;42.630;23.192;2023-04-09T03:18:32;92463.88;;;5.19;89.28
64602;BME280;68371;42.630;23.192;2023-04-09T03:20:58;92458.66;;;5.19;89.09
64602;BME280;68371;42.630;23.192;2023-04-09T03:23:25;92462.63;;;5.16;89.51
64602;BME280;68371;42.630;23.192;2023-04-09T03:25:59;92465.53;;;5.15;89.78
64602;BME280;68371;42.630;23.192;2023-04-09T03:28:27;92467.19;;;5.11;90.06
64602;BME280;68371;42.630;23.192;2023-04-09T03:30:54;92468.88;;;5.07;90.20
64602;BME280;68371;42.630;23.192;2023-04-09T03:33:20;92464.56;;;5.02;90.47
64602;BME280;68371;42.630;23.192;2023-04-09T03:35:47;92464.09;;;5.00;90.67
64602;BME280;68371;42.630;23.192;2023-04-09T03:38:14;92463.44;;;4.94;90.96
64602;BME280;68371;42.630;23.192;2023-04-09T03:40:40;92466.94;;;4.90;91.12
64602;BME280;68371;42.630;23.192;2023-04-09T03:43:07;92467.69;;;4.90;90.86
64602;BME280;68371;42.630;23.192;2023-04-09T03:45:35;92470.97;;;4.73;91.62
64602;BME280;68371;42.630;23.192;2023-04-09T03:48:02;92468.94;;;4.70;91.84
64602;BME280;68371;42.630;23.192;2023-04-09T03:50:28;92473.56;;;4.73;92.43
64602;BME280;68371;42.630;23.192;2023-04-09T03:52:55;92469.44;;;4.72;92.45
64602;BME280;68371;42.630;23.192;2023-04-09T03:55:22;92474.16;;;4.70;92.79
64602;BME280;68371;42.630;23.192;2023-04-09T03:57:49;92472.25;;;4.39;93.53
64602;BME280;68371;42.630;23.192;2023-04-09T04:00:16;92473.72;;;4.32;94.14
64602;BME280;68371;42.630;23.192;2023-04-09T04:02:45;92479.88;;;4.36;94.96
64602;BME280;68371;42.630;23.192;2023-04-09T04:05:11;92482.09;;;4.43;94.79
64602;BME280;68371;42.630;23.192;2023-04-09T04:07:38;92483.31;;;4.45;94.56
64602;BME280;68371;42.630;23.192;2023-04-09T04:10:08;92478.72;;;4.42;94.79
64602;BME280;68371;42.630;23.192;2023-04-09T04:12:35;92479.97;;;4.45;95.12
64602;BME280;68371;42.630;23.192;2023-04-09T04:15:02;92485.69;;;4.55;94.52
64602;BME280;68371;42.630;23.192;2023-04-09T04:17:28;92471.50;;;4.61;94.42
64602;BME280;68371;42.630;23.192;2023-04-09T04:19:57;92486.41;;;4.70;94.30
64602;BME280;68371;42.630;23.192;2023-04-09T04:22:23;92478.59;;;4.70;93.71
64602;BME280;68371;42.630;23.192;2023-04-09T04:24:50;92478.03;;;4.73;93.93
64602;BME280;68371;42.630;23.192;2023-04-09T04:27:17;92481.84;;;4.75;94.54
64602;BME280;68371;42.630;23.192;2023-04-09T04:29:44;92486.81;;;4.86;94.41
64602;BME280;68371;42.630;23.192;2023-04-09T04:32:11;92477.16;;;4.86;92.98
64602;BME280;68371;42.630;23.192;2023-04-09T04:34:37;92473.56;;;4.73;94.32
64602;BME280;68371;42.630;23.192;2023-04-09T04:37:05;92478.19;;;4.76;94.78
64602;BME280;68371;42.630;23.192;2023-04-09T04:39:32;92477.78;;;4.83;94.91
64602;BME280;68371;42.630;23.192;2023-04-09T04:41:59;92475.84;;;4.89;94.86
64602;BME280;68371;42.630;23.192;2023-04-09T04:44:25;92472.91;;;4.90;94.73
64602;BME280;68371;42.630;23.192;2023-04-09T04:46:53;92480.09;;;4.85;95.42
64602;BME280;68371;42.630;23.192;2023-04-09T04:49:20;92480.25;;;4.88;95.79
64602;BME280;68371;42.630;23.192;2023-04-09T04:51:46;92485.94;;;4.90;96.17
64602;BME280;68371;42.630;23.192;2023-04-09T04:54:14;92477.03;;;4.82;96.06
64602;BME280;68371;42.630;23.192;2023-04-09T04:56:41;92483.31;;;4.90;95.41
64602;BME280;68371;42.630;23.192;2023-04-09T04:59:08;92486.78;;;4.77;96.90
64602;BME280;68371;42.630;23.192;2023-04-09T05:01:34;92484.69;;;4.88;96.90
64602;BME280;68371;42.630;23.192;2023-04-09T05:04:01;92471.09;;;4.91;96.67
64602;BME280;68371;42.630;23.192;2023-04-09T05:06:28;92474.22;;;4.79;98.06
64602;BME280;68371;42.630;23.192;2023-04-09T05:08:55;92472.16;;;4.90;97.86
64602;BME280;68371;42.630;23.192;2023-04-09T05:11:25;92479.13;;;5.03;98.40
64602;BME280;68371;42.630;23.192;2023-04-09T05:13:51;92469.44;;;4.95;99.08
64602;BME280;68371;42.630;23.192;2023-04-09T05:16:19;92480.94;;;5.02;98.96
64602;BME280;68371;42.630;23.192;2023-04-09T05:18:46;92480.84;;;5.08;99.16
64602;BME280;68371;42.630;23.192;2023-04-09T05:21:13;92478.88;;;5.13;99.42
64602;BME280;68371;42.630;23.192;2023-04-09T05:23:40;92485.69;;;5.00;99.72
64602;BME280;68371;42.630;23.192;2023-04-09T05:26:07;92485.06;;;4.95;100.00
64602;BME280;68371;42.630;23.192;2023-04-09T05:28:35;92481.97;;;4.93;100.00
64602;BME280;68371;42.630;23.192;2023-04-09T05:31:02;92478.34;;;5.02;99.90
64602;BME280;68371;42.630;23.192;2023-04-09T05:33:29;92480.47;;;5.00;100.00
64602;BME280;68371;42.630;23.192;2023-04-09T05:36:02;92469.19;;;5.05;100.00
64602;BME280;68371;42.630;23.192;2023-04-09T05:38:28;92480.84;;;5.08;99.74
64602;BME280;68371;42.630;23.192;2023-04-09T05:40:56;92485.75;;;5.09;100.00
64602;BME280;68371;42.630;23.192;2023-04-09T05:43:22;92482.28;;;5.22;100.00
64602;BME280;68371;42.630;23.192;2023-04-09T05:45:51;92486.47;;;5.32;100.00
64602;BME280;68371;42.630;23.192;2023-04-09T05:48:17;92489.81;;;5.24;100.00
64602;BME280;68371;42.630;23.192;2023-04-09T05:50:48;92483.88;;;5.41;100.00
64602;BME280;68371;42.630;23.192;2023-04-09T05:53:15;92486.66;;;5.45;100.00
64602;BME280;68371;42.630;23.192;2023-04-09T05:55:41;92490.84;;;5.54;100.00
64602;BME280;68371;42.630;23.192;2023-04-09T05:58:08;92483.59;;;5.42;100.00
64602;BME280;68371;42.630;23.192;2023-04-09T06:00:35;92486.38;;;5.46;100.00
64602;BME280;68371;42.630;23.192;2023-04-09T06:03:03;92489.00;;;5.55;100.00
64602;BME280;68371;42.630;23.192;2023-04-09T06:05:30;92487.16;;;5.55;98.13
64602;BME280;68371;42.630;23.192;2023-04-09T06:07:57;92486.88;;;5.57;96.48
64602;BME280;68371;42.630;23.192;2023-04-09T06:10:23;92495.69;;;5.70;96.62
64602;BME280;68371;42.630;23.192;2023-04-09T06:12:50;92495.06;;;5.73;96.04
64602;BME280;68371;42.630;23.192;2023-04-09T06:15:17;92494.16;;;5.77;96.52
64602;BME280;68371;42.630;23.192;2023-04-09T06:17:44;92501.97;;;5.77;96.38
64602;BME280;68371;42.630;23.192;2023-04-09T06:20:13;92498.28;;;5.70;95.70
64602;BME280;68371;42.630;23.192;2023-04-09T06:22:40;92496.13;;;5.72;96.56
64602;BME280;68371;42.630;23.192;2023-04-09T06:25:07;92515.03;;;5.86;96.47
64602;BME280;68371;42.630;23.192;2023-04-09T06:27:33;92510.16;;;5.93;96.18
64602;BME280;68371;42.630;23.192;2023-04-09T06:30:00;92524.09;;;5.89;96.30
64602;BME280;68371;42.630;23.192;2023-04-09T06:32:28;92517.19;;;5.84;96.77
64602;BME280;68371;42.630;23.192;2023-04-09T06:34:54;92518.69;;;5.76;96.61
64602;BME280;68371;42.630;23.192;2023-04-09T06:37:22;92516.41;;;5.83;97.28
64602;BME280;68371;42.630;23.192;2023-04-09T06:39:49;92516.84;;;5.77;96.27
64602;BME280;68371;42.630;23.192;2023-04-09T06:42:16;92527.91;;;5.82;95.35
64602;BME280;68371;42.630;23.192;2023-04-09T06:44:43;92523.75;;;5.81;95.46
64602;BME280;68371;42.630;23.192;2023-04-09T06:47:09;92523.59;;;5.78;96.20
64602;BME280;68371;42.630;23.192;2023-04-09T06:49:36;92524.34;;;5.70;95.76
64602;BME280;68371;42.630;23.192;2023-04-09T06:52:03;92523.91;;;5.76;95.54
64602;BME280;68371;42.630;23.192;2023-04-09T06:54:32;92522.53;;;5.79;95.11
64602;BME280;68371;42.630;23.192;2023-04-09T06:57:00;92523.00;;;5.81;95.73
64602;BME280;68371;42.630;23.192;2023-04-09T06:59:26;92522.88;;;5.86;95.65
64602;BME280;68371;42.630;23.192;2023-04-09T07:01:54;92526.41;;;5.90;96.20
64602;BME280;68371;42.630;23.192;2023-04-09T07:04:20;92520.19;;;6.09;95.67
64602;BME280;68371;42.630;23.192;2023-04-09T07:06:47;92520.97;;;6.18;95.42
64602;BME280;68371;42.630;23.192;2023-04-09T07:09:14;92523.16;;;6.33;94.55
64602;BME280;68371;42.630;23.192;2023-04-09T07:11:43;92523.94;;;6.51;93.07
64602;BME280;68371;42.630;23.192;2023-04-09T07:14:10;92521.19;;;6.65;93.23
64602;BME280;68371;42.630;23.192;2023-04-09T07:16:36;92524.25;;;6.85;93.35
64602;BME280;68371;42.630;23.192;2023-04-09T07:19:03;92521.16;;;6.91;91.06
64602;BME280;68371;42.630;23.192;2023-04-09T07:21:31;92511.94;;;7.02;90.36
64602;BME280;68371;42.630;23.192;2023-04-09T07:23:58;92518.84;;;7.07;90.16
64602;BME280;68371;42.630;23.192;2023-04-09T07:26:26;92524.72;;;7.04;89.21
64602;BME280;68371;42.630;23.192;2023-04-09T07:28:54;92523.75;;;7.17;89.86
64602;BME280;68371;42.630;23.192;2023-04-09T07:31:22;92527.28;;;7.30;89.35
64602;BME280;68371;42.630;23.192;2023-04-09T07:33:49;92521.53;;;7.46;88.85
64602;BME280;68371;42.630;23.192;2023-04-09T07:36:15;92524.34;;;7.40;87.13
64602;BME280;68371;42.630;23.192;2023-04-09T07:38:42;92513.69;;;7.46;87.21
64602;BME280;68371;42.630;23.192;2023-04-09T07:41:09;92520.19;;;7.31;87.33
64602;BME280;68371;42.630;23.192;2023-04-09T07:43:36;92519.13;;;7.23;87.86
64602;BME280;68371;42.630;23.192;2023-04-09T07:46:04;92512.50;;;7.26;88.43
64602;BME280;68371;42.630;23.192;2023-04-09T07:48:31;92519.72;;;7.46;87.64
64602;BME280;68371;42.630;23.192;2023-04-09T07:50:57;92518.88;;;7.63;88.03
64602;BME280;68371;42.630;23.192;2023-04-09T07:53:24;92521.75;;;7.70;85.64
64602;BME280;68371;42.630;23.192;2023-04-09T07:55:51;92517.63;;;7.69;82.62
64602;BME280;68371;42.630;23.192;2023-04-09T07:58:17;92519.28;;;7.74;80.76
64602;BME280;68371;42.630;23.192;2023-04-09T08:00:44;92525.13;;;7.79;81.57
64602;BME280;68371;42.630;23.192;2023-04-09T08:03:12;92516.03;;;7.86;80.44
64602;BME280;68371;42.630;23.192;2023-04-09T08:05:39;92522.13;;;7.98;81.86
64602;BME280;68371;42.630;23.192;2023-04-09T08:08:06;92520.47;;;8.23;79.05
64602;BME280;68371;42.630;23.192;2023-04-09T08:10:32;92502.59;;;8.26;80.19
64602;BME280;68371;42.630;23.192;2023-04-09T08:12:59;92518.75;;;8.28;81.84
64602;BME280;68371;42.630;23.192;2023-04-09T08:15:26;92520.09;;;8.34;77.22
64602;BME280;68371;42.630;23.192;2023-04-09T08:17:53;92520.25;;;8.29;79.01
64602;BME280;68371;42.630;23.192;2023-04-09T08:20:21;92525.03;;;8.35;81.36
64602;BME280;68371;42.630;23.192;2023-04-09T08:22:48;92524.22;;;8.44;81.93
64602;BME280;68371;42.630;23.192;2023-04-09T08:25:15;92529.00;;;8.41;81.69
64602;BME280;68371;42.630;23.192;2023-04-09T08:27:41;92532.09;;;8.44;79.34
64602;BME280;68371;42.630;23.192;2023-04-09T08:30:09;92520.81;;;8.43;80.20
64602;BME280;68371;42.630;23.192;2023-04-09T08:32:36;92522.16;;;8.49;79.59
64602;BME280;68371;42.630;23.192;2023-04-09T08:35:03;92518.03;;;8.69;79.49
64602;BME280;68371;42.630;23.192;2023-04-09T08:37:32;92520.25;;;8.79;81.39
64602;BME280;68371;42.630;23.192;2023-04-09T08:39:59;92515.81;;;8.80;81.62
64602;BME280;68371;42.630;23.192;2023-04-09T08:42:28;92508.38;;;9.03;80.64
64602;BME280;68371;42.630;23.192;2023-04-09T08:44:57;92506.03;;;9.22;76.69
64602;BME280;68371;42.630;23.192;2023-04-09T08:47:24;92503.09;;;9.36;78.51
64602;BME280;68371;42.630;23.192;2023-04-09T08:49:51;92503.56;;;9.51;77.26
64602;BME280;68371;42.630;23.192;2023-04-09T08:52:18;92503.25;;;9.52;75.28
64602;BME280;68371;42.630;23.192;2023-04-09T08:54:48;92511.00;;;9.61;74.70
64602;BME280;68371;42.630;23.192;2023-04-09T08:57:16;92507.78;;;9.76;73.82
64602;BME280;68371;42.630;23.192;2023-04-09T08:59:43;92509.84;;;9.83;73.82
64602;BME280;68371;42.630;23.192;2023-04-09T09:02:09;92508.75;;;9.84;74.49
64602;BME280;68371;42.630;23.192;2023-04-09T09:04:43;92503.41;;;9.93;74.57
64602;BME280;68371;42.630;23.192;2023-04-09T09:07:11;92497.28;;;10.01;73.99
64602;BME280;68371;42.630;23.192;2023-04-09T09:09:51;92500.22;;;9.87;72.62
64602;BME280;68371;42.630;23.192;2023-04-09T09:12:35;92477.47;;;9.91;73.93
64602;BME280;68371;42.630;23.192;2023-04-09T09:15:03;92496.97;;;10.15;72.63
64602;BME280;68371;42.630;23.192;2023-04-09T09:17:30;92490.94;;;10.02;73.53
64602;BME280;68371;42.630;23.192;2023-04-09T09:19:58;92493.13;;;10.00;72.26
64602;BME280;68371;42.630;23.192;2023-04-09T09:22:50;92490.28;;;9.80;72.89
64602;BME280;68371;42.630;23.192;2023-04-09T09:25:19;92493.78;;;9.97;74.32
64602;BME280;68371;42.630;23.192;2023-04-09T09:27:47;92495.75;;;10.00;72.40
64602;BME280;68371;42.630;23.192;2023-04-09T09:30:20;92434.94;;;9.61;73.36
64602;BME280;68371;42.630;23.192;2023-04-09T09:32:50;92492.69;;;9.98;73.07
64602;BME280;68371;42.630;23.192;2023-04-09T09:35:17;92486.13;;;10.04;72.03
64602;BME280;68371;42.630;23.192;2023-04-09T09:37:43;92489.28;;;9.97;72.09
64602;BME280;68371;42.630;23.192;2023-04-09T09:40:26;92486.69;;;10.10;72.56
64602;BME280;68371;42.630;23.192;2023-04-09T09:42:54;92497.28;;;10.13;72.39
64602;BME280;68371;42.630;23.192;2023-04-09T09:45:21;92491.38;;;10.16;71.82
64602;BME280;68371;42.630;23.192;2023-04-09T09:47:48;92491.69;;;10.15;73.77
64602;BME280;68371;42.630;23.192;2023-04-09T09:50:15;92484.38;;;10.33;71.76
64602;BME280;68371;42.630;23.192;2023-04-09T09:52:43;92483.59;;;10.45;70.78
64602;BME280;68371;42.630;23.192;2023-04-09T09:55:13;92487.31;;;10.43;70.74
64602;BME280;68371;42.630;23.192;2023-04-09T09:57:43;92482.31;;;10.38;69.70
64602;BME280;68371;42.630;23.192;2023-04-09T10:00:11;92489.06;;;10.52;70.82
64602;BME280;68371;42.630;23.192;2023-04-09T10:02:42;92485.44;;;10.56;71.60
64602;BME280;68371;42.630;23.192;2023-04-09T10:05:10;92484.72;;;10.31;69.38
64602;BME280;68371;42.630;23.192;2023-04-09T10:07:38;92479.13;;;10.33;70.50
64602;BME280;68371;42.630;23.192;2023-04-09T10:10:06;92487.78;;;10.33;69.57
64602;BME280;68371;42.630;23.192;2023-04-09T10:12:34;92490.72;;;10.32;68.93
64602;BME280;68371;42.630;23.192;2023-04-09T10:15:02;92485.38;;;10.40;69.93
64602;BME280;68371;42.630;23.192;2023-04-09T10:17:31;92432.88;;;10.16;69.86
64602;BME280;68371;42.630;23.192;2023-04-09T10:20:04;92482.59;;;10.49;69.74
64602;BME280;68371;42.630;23.192;2023-04-09T10:22:33;92485.22;;;10.49;70.44
64602;BME280;68371;42.630;23.192;2023-04-09T10:25:01;92484.16;;;10.38;67.59
64602;BME280;68371;42.630;23.192;2023-04-09T10:27:28;92482.31;;;10.38;69.07
64602;BME280;68371;42.630;23.192;2023-04-09T10:29:56;92487.97;;;10.28;68.14
64602;BME280;68371;42.630;23.192;2023-04-09T10:32:25;92483.69;;;10.23;68.21
64602;BME280;68371;42.630;23.192;2023-04-09T10:34:56;92485.69;;;10.27;69.20
64602;BME280;68371;42.630;23.192;2023-04-09T10:37:24;92486.25;;;10.20;71.96
64602;BME280;68371;42.630;23.192;2023-04-09T10:39:52;92486.75;;;10.26;73.31
64602;BME280;68371;42.630;23.192;2023-04-09T10:42:21;92487.22;;;10.15;74.51
64602;BME280;68371;42.630;23.192;2023-04-09T10:45:04;92486.56;;;9.81;75.43
64602;BME280;68371;42.630;23.192;2023-04-09T10:47:34;92498.28;;;9.84;74.59
64602;BME280;68371;42.630;23.192;2023-04-09T10:50:14;92499.03;;;9.72;75.95
64602;BME280;68371;42.630;23.192;2023-04-09T10:52:42;92493.31;;;9.46;78.31
64602;BME280;68371;42.630;23.192;2023-04-09T10:55:09;92500.06;;;9.47;77.82
64602;BME280;68371;42.630;23.192;2023-04-09T10:57:36;92500.31;;;9.54;79.94
64602;BME280;68371;42.630;23.192;2023-04-09T11:00:03;92501.38;;;9.40;82.28
64602;BME280;68371;42.630;23.192;2023-04-09T11:02:47;92489.09;;;9.32;82.47
64602;BME280;68371;42.630;23.192;2023-04-09T11:05:25;92491.66;;;9.41;83.24
64602;BME280;68371;42.630;23.192;2023-04-09T11:07:57;92489.78;;;9.29;83.60
64602;BME280;68371;42.630;23.192;2023-04-09T11:10:26;92487.75;;;9.14;85.85
64602;BME280;68371;42.630;23.192;2023-04-09T11:12:53;92339.69;;;8.08;85.98
64602;BME280;68371;42.630;23.192;2023-04-09T11:15:20;92494.28;;;9.08;85.72
64602;BME280;68371;42.630;23.192;2023-04-09T11:17:49;92491.53;;;9.04;86.83
64602;BME280;68371;42.630;23.192;2023-04-09T11:20:19;92490.69;;;9.12;87.04
64602;BME280;68371;42.630;23.192;2023-04-09T11:22:46;92491.50;;;9.25;89.12
64602;BME280;68371;42.630;23.192;2023-04-09T11:25:18;92490.41;;;9.26;87.89
64602;BME280;68371;42.630;23.192;2023-04-09T11:27:45;92476.97;;;9.28;84.88
64602;BME280;68371;42.630;23.192;2023-04-09T11:30:12;92484.56;;;9.41;82.64
64602;BME280;68371;42.630;23.192;2023-04-09T11:32:39;92482.06;;;9.45;82.59
64602;BME280;68371;42.630;23.192;2023-04-09T11:35:11;92475.84;;;9.62;83.78
64602;BME280;68371;42.630;23.192;2023-04-09T11:37:39;92471.91;;;9.68;82.81
64602;BME280;68371;42.630;23.192;2023-04-09T11:40:07;92473.91;;;9.71;87.06
64602;BME280;68371;42.630;23.192;2023-04-09T11:42:34;92473.97;;;9.87;82.31
64602;BME280;68371;42.630;23.192;2023-04-09T11:45:03;92471.28;;;9.83;83.53
64602;BME280;68371;42.630;23.192;2023-04-09T11:47:30;92471.72;;;9.86;80.31
64602;BME280;68371;42.630;23.192;2023-04-09T11:50:00;92472.47;;;10.11;82.27
64602;BME280;68371;42.630;23.192;2023-04-09T11:52:28;92472.66;;;10.06;76.14
64602;BME280;68371;42.630;23.192;2023-04-09T11:54:58;92464.88;;;10.21;76.94
64602;BME280;68371;42.630;23.192;2023-04-09T11:57:35;92457.78;;;10.47;78.43
64602;BME280;68371;42.630;23.192;2023-04-09T12:00:05;92455.97;;;10.63;80.93
64602;BME280;68371;42.630;23.192;2023-04-09T12:02:33;92461.19;;;10.75;78.40
64602;BME280;68371;42.630;23.192;2023-04-09T12:05:02;92455.25;;;10.78;75.56
64602;BME280;68371;42.630;23.192;2023-04-09T12:07:33;92449.09;;;10.87;73.56
64602;BME280;68371;42.630;23.192;2023-04-09T12:10:05;92452.69;;;10.94;75.13
64602;BME280;68371;42.630;23.192;2023-04-09T12:12:39;92434.09;;;10.87;78.88
64602;BME280;68371;42.630;23.192;2023-04-09T12:15:09;92451.44;;;11.04;78.66
64602;BME280;68371;42.630;23.192;2023-04-09T12:17:36;92458.78;;;10.98;76.86
64602;BME280;68371;42.630;23.192;2023-04-09T12:20:04;92460.75;;;11.01;74.77
64602;BME280;68371;42.630;23.192;2023-04-09T12:22:34;92452.78;;;10.98;72.15
64602;BME280;68371;42.630;23.192;2023-04-09T12:25:05;92448.75;;;10.88;74.53
64602;BME280;68371;42.630;23.192;2023-04-09T12:27:32;92451.38;;;10.60;71.32
64602;BME280;68371;42.630;23.192;2023-04-09T12:29:59;92452.41;;;10.43;73.57
64602;BME280;68371;42.630;23.192;2023-04-09T12:32:26;92457.88;;;10.38;74.62
64602;BME280;68371;42.630;23.192;2023-04-09T12:34:53;92450.91;;;10.17;75.44
64602;BME280;68371;42.630;23.192;2023-04-09T12:37:20;92451.91;;;10.00;76.37
64602;BME280;68371;42.630;23.192;2023-04-09T12:39:48;92447.75;;;9.99;77.28
64602;BME280;68371;42.630;23.192;2023-04-09T12:42:15;92454.97;;;9.90;78.00
64602;BME280;68371;42.630;23.192;2023-04-09T12:44:41;92453.66;;;9.72;78.32
64602;BME280;68371;42.630;23.192;2023-04-09T12:47:08;92451.69;;;9.69;80.90
64602;BME280;68371;42.630;23.192;2023-04-09T12:49:35;92454.09;;;9.74;80.14
64602;BME280;68371;42.630;23.192;2023-04-09T12:52:01;92465.78;;;9.76;82.21
64602;BME280;68371;42.630;23.192;2023-04-09T12:54:28;92452.56;;;9.85;82.41
64602;BME280;68371;42.630;23.192;2023-04-09T12:56:56;92446.78;;;9.92;83.13
64602;BME280;68371;42.630;23.192;2023-04-09T12:59:23;92450.38;;;9.75;81.60
64602;BME280;68371;42.630;23.192;2023-04-09T13:01:50;92453.72;;;9.26;84.45